createdAt,value
2022-12-05T00:02:15.901Z,21.60
2022-12-05T00:05:01.226Z,21.50
2022-12-05T00:07:47.606Z,21.67
2022-12-05T00:10:36.968Z,21.27
2022-12-05T00:13:22.075Z,21.85
2022-12-05T00:16:09.658Z,23.08
2022-12-05T00:18:55.273Z,20.92
2022-12-05T00:21:40.874Z,20.77
2022-12-05T00:24:26.248Z,22.05
2022-12-05T00:27:11.620Z,21.83
2022-12-05T00:29:57.213Z,22.55
2022-12-05T00:32:42.984Z,22.55
2022-12-05T00:35:28.385Z,21.08
2022-12-05T00:38:13.849Z,21.73
2022-12-05T00:41:07.241Z,21.67
2022-12-05T00:43:53.167Z,22.60
2022-12-05T00:46:38.561Z,21.95
2022-12-05T00:49:24.139Z,21.75
2022-12-05T00:52:09.851Z,21.88
2022-12-05T00:54:55.311Z,20.60
2022-12-05T00:57:41.000Z,20.50
2022-12-05T01:00:26.375Z,20.67
2022-12-05T01:03:12.083Z,21.10
2022-12-05T01:05:59.377Z,20.83
2022-12-05T01:08:44.941Z,20.10
2022-12-05T01:11:33.065Z,20.73
2022-12-05T01:14:23.948Z,19.60
2022-12-05T01:17:10.614Z,20.15
2022-12-05T01:19:56.352Z,20.38
2022-12-05T01:22:42.034Z,21.20
2022-12-05T01:25:27.564Z,19.90
2022-12-05T01:28:14.124Z,19.30
2022-12-05T01:31:05.647Z,19.88
2022-12-05T01:33:52.616Z,19.55
2022-12-05T01:36:39.524Z,19.80
2022-12-05T01:39:25.016Z,19.45
2022-12-05T01:42:12.149Z,19.58
2022-12-05T01:45:14.735Z,20.20
2022-12-05T01:48:05.215Z,18.95
2022-12-05T01:50:51.084Z,18.98
2022-12-05T01:53:37.041Z,18.95
2022-12-05T01:56:22.312Z,18.50
2022-12-05T01:59:11.116Z,17.95
2022-12-05T02:01:56.273Z,18.00
2022-12-05T02:04:55.703Z,18.02
2022-12-05T02:07:43.408Z,16.95
2022-12-05T02:10:37.403Z,17.90
2022-12-05T02:14:03.096Z,17.30
2022-12-05T02:17:09.804Z,17.33
2022-12-05T02:20:07.943Z,17.38
2022-12-05T02:23:15.260Z,17.63
2022-12-05T02:26:33.848Z,17.13
2022-12-05T02:29:40.852Z,17.00
2022-12-05T02:32:43.723Z,17.83
2022-12-05T02:35:39.756Z,17.75
2022-12-05T02:38:41.943Z,17.45
2022-12-05T02:41:56.040Z,17.23
2022-12-05T02:44:47.691Z,16.95
2022-12-05T02:47:38.599Z,16.20
2022-12-05T02:50:28.639Z,17.25
2022-12-05T02:53:17.653Z,17.55
2022-12-05T02:56:05.051Z,17.85
2022-12-05T02:58:55.808Z,17.40
2022-12-05T03:01:44.943Z,16.60
2022-12-05T03:04:32.000Z,18.08
2022-12-05T03:07:19.686Z,16.70
2022-12-05T03:10:08.204Z,17.77
2022-12-05T03:13:00.421Z,17.83
2022-12-05T03:15:52.512Z,18.10
2022-12-05T03:18:43.368Z,17.88
2022-12-05T03:21:40.457Z,17.73
2022-12-05T03:24:26.070Z,16.80
2022-12-05T03:27:38.160Z,16.95
2022-12-05T03:30:23.880Z,16.67
2022-12-05T03:33:19.289Z,16.77
2022-12-05T03:36:04.838Z,17.52
2022-12-05T03:38:56.686Z,17.40
2022-12-05T03:41:47.948Z,18.20
2022-12-05T03:44:47.092Z,17.92
2022-12-05T03:47:55.410Z,17.42
2022-12-05T03:50:44.274Z,18.67
2022-12-05T03:53:37.478Z,18.58
2022-12-05T03:56:29.841Z,19.17
2022-12-05T04:05:46.403Z,19.33
2022-12-05T04:08:47.183Z,17.75
2022-12-05T04:11:36.402Z,19.33
2022-12-05T04:14:43.372Z,20.80
2022-12-05T04:17:53.986Z,21.55
2022-12-05T04:21:01.246Z,22.00
2022-12-05T04:24:06.727Z,22.70
2022-12-05T04:27:02.219Z,21.33
2022-12-05T04:30:07.410Z,22.73
2022-12-05T04:33:04.973Z,21.50
2022-12-05T04:35:54.923Z,24.15
2022-12-05T04:38:52.011Z,24.17
2022-12-05T04:41:42.904Z,22.95
2022-12-05T04:44:33.397Z,24.35
2022-12-05T04:47:21.574Z,22.42
2022-12-05T04:50:09.455Z,23.95
2022-12-05T04:52:58.014Z,25.13
2022-12-05T04:55:47.886Z,23.85
2022-12-05T04:58:33.447Z,23.75
2022-12-05T05:01:45.864Z,24.95
2022-12-05T05:04:36.344Z,24.07
2022-12-05T05:07:21.800Z,23.33
2022-12-05T05:10:07.943Z,23.35
2022-12-05T05:12:53.371Z,22.85
2022-12-05T05:15:39.653Z,23.25
2022-12-05T05:18:24.918Z,21.60
2022-12-05T05:21:23.286Z,20.83
2022-12-05T05:24:10.472Z,20.55
2022-12-05T05:26:57.626Z,21.42
2022-12-05T05:29:42.766Z,21.02
2022-12-05T05:32:28.360Z,20.88
2022-12-05T05:35:14.524Z,21.30
2022-12-05T05:37:59.983Z,19.58
2022-12-05T05:40:45.566Z,20.02
2022-12-05T05:43:30.822Z,19.75
2022-12-05T05:46:18.019Z,17.63
2022-12-05T05:49:03.715Z,17.50
2022-12-05T05:51:49.179Z,16.33
2022-12-05T05:54:34.544Z,17.08
2022-12-05T05:57:20.646Z,16.33
2022-12-05T06:00:07.512Z,16.63
2022-12-05T06:02:53.170Z,15.40
2022-12-05T06:05:38.411Z,15.63
2022-12-05T06:08:23.950Z,15.30
2022-12-05T06:11:12.635Z,15.32
2022-12-05T06:14:02.587Z,14.98
2022-12-05T06:16:47.756Z,14.38
2022-12-05T06:19:33.051Z,14.77
2022-12-05T06:22:18.502Z,14.38
2022-12-05T06:25:04.240Z,14.30
2022-12-05T06:27:49.853Z,14.57
2022-12-05T06:30:35.223Z,13.43
2022-12-05T06:33:20.884Z,14.40
2022-12-05T06:36:11.131Z,13.23
2022-12-05T06:38:57.850Z,13.50
2022-12-05T06:41:43.185Z,13.85
2022-12-05T06:44:29.117Z,12.48
2022-12-05T06:47:14.610Z,12.82
2022-12-05T06:50:00.199Z,12.68
2022-12-05T06:52:45.532Z,12.20
2022-12-05T06:55:31.002Z,12.35
2022-12-05T06:58:16.411Z,12.07
2022-12-05T07:01:20.388Z,12.38
2022-12-05T07:04:26.994Z,10.98
2022-12-05T07:07:13.581Z,9.90
2022-12-05T07:09:59.126Z,10.77
2022-12-05T07:12:44.835Z,11.88
2022-12-05T07:15:30.377Z,11.80
2022-12-05T07:18:17.267Z,11.50
2022-12-05T07:21:13.680Z,10.38
2022-12-05T07:23:59.267Z,10.02
2022-12-05T07:26:44.685Z,9.50
2022-12-05T07:29:30.085Z,9.75
2022-12-05T07:32:15.717Z,9.65
2022-12-05T07:35:01.104Z,10.63
2022-12-05T07:37:46.635Z,9.38
2022-12-05T07:40:32.168Z,9.32
2022-12-05T07:43:17.498Z,9.43
2022-12-05T07:46:07.632Z,9.18
2022-12-05T07:48:54.243Z,8.88
2022-12-05T07:51:39.533Z,8.80
2022-12-05T07:54:24.766Z,8.60
2022-12-05T07:57:10.274Z,8.90
2022-12-05T07:59:55.780Z,9.20
2022-12-05T08:02:41.818Z,9.23
2022-12-05T08:05:27.116Z,9.27
2022-12-05T08:08:12.698Z,9.40
2022-12-05T08:11:07.345Z,9.20
2022-12-05T08:13:53.730Z,9.20
2022-12-05T08:16:39.050Z,9.25
2022-12-05T08:19:24.438Z,9.43
2022-12-05T08:22:10.034Z,8.73
2022-12-05T08:24:56.472Z,9.10
2022-12-05T08:27:41.879Z,8.85
2022-12-05T08:30:27.236Z,9.23
2022-12-05T08:33:12.540Z,8.90
2022-12-05T08:36:01.187Z,9.10
2022-12-05T08:38:46.585Z,8.57
2022-12-05T08:41:32.584Z,8.40
2022-12-05T08:44:18.476Z,8.82
2022-12-05T08:47:04.292Z,8.98
2022-12-05T08:49:49.644Z,8.65
2022-12-05T08:52:34.814Z,8.52
2022-12-05T08:55:20.061Z,8.63
2022-12-05T08:58:05.848Z,8.77
2022-12-05T09:00:51.117Z,9.18
2022-12-05T09:03:36.755Z,8.02
2022-12-05T09:06:24.070Z,8.18
2022-12-05T09:09:11.523Z,8.52
2022-12-05T09:11:58.576Z,8.13
2022-12-05T09:14:43.802Z,8.50
2022-12-05T09:17:29.251Z,8.85
2022-12-05T09:20:14.893Z,8.52
2022-12-05T09:23:00.524Z,8.63
2022-12-05T09:25:52.860Z,8.35
2022-12-05T09:28:39.081Z,8.45
2022-12-05T09:31:27.043Z,8.48
2022-12-05T09:34:14.061Z,8.55
2022-12-05T09:37:16.626Z,8.45
2022-12-05T09:40:06.465Z,8.10
2022-12-05T09:43:08.161Z,7.80
2022-12-05T09:46:25.787Z,8.15
2022-12-05T09:49:13.488Z,8.13
2022-12-05T09:52:00.434Z,8.02
2022-12-05T09:54:46.087Z,8.82
2022-12-05T09:57:35.787Z,7.78
2022-12-05T10:00:21.270Z,8.02
2022-12-05T10:03:35.771Z,7.68
2022-12-05T10:06:27.195Z,8.18
2022-12-05T10:09:47.770Z,8.40
2022-12-05T10:12:52.958Z,7.80
2022-12-05T10:15:49.439Z,8.13
2022-12-05T10:18:48.532Z,8.38
2022-12-05T10:21:59.012Z,7.50
2022-12-05T10:24:55.895Z,7.78
2022-12-05T10:27:48.696Z,8.27
2022-12-05T10:30:36.869Z,7.47
2022-12-05T10:33:23.496Z,8.43
2022-12-05T10:36:14.195Z,8.27
2022-12-05T10:38:59.805Z,9.02
2022-12-05T10:41:45.311Z,8.02
2022-12-05T10:44:32.054Z,8.70
2022-12-05T10:47:17.669Z,9.40
2022-12-05T10:50:07.799Z,8.40
2022-12-05T10:52:55.546Z,8.70
2022-12-05T10:56:00.106Z,10.45
2022-12-05T10:58:59.175Z,9.70
2022-12-05T11:01:54.525Z,9.50
2022-12-05T11:04:45.046Z,9.25
2022-12-05T11:07:32.655Z,8.88
2022-12-05T11:10:34.523Z,9.02
2022-12-05T11:13:25.757Z,8.88
2022-12-05T11:16:25.238Z,8.63
2022-12-05T11:19:22.503Z,7.57
2022-12-05T11:22:17.234Z,7.85
2022-12-05T11:25:28.490Z,8.27
2022-12-05T11:28:16.635Z,7.53
2022-12-05T11:31:08.249Z,7.57
2022-12-05T11:34:09.098Z,8.13
2022-12-05T11:37:04.944Z,7.90
2022-12-05T11:39:50.638Z,7.95
2022-12-05T11:42:41.476Z,8.18
2022-12-05T11:46:02.356Z,8.32
2022-12-05T11:48:59.401Z,7.95
2022-12-05T11:51:55.792Z,7.68
2022-12-05T11:55:06.855Z,8.32
2022-12-05T11:58:13.344Z,8.38
2022-12-05T12:01:18.190Z,8.60
2022-12-05T12:04:27.778Z,8.25
2022-12-05T12:07:22.906Z,8.07
2022-12-05T12:10:38.055Z,8.00
2022-12-05T12:13:26.071Z,8.13
2022-12-05T12:16:50.394Z,8.13
2022-12-05T12:19:43.962Z,8.38
2022-12-05T12:22:54.176Z,9.20
2022-12-05T12:26:05.683Z,8.43
2022-12-05T12:29:16.173Z,8.18
2022-12-05T12:32:31.539Z,8.40
2022-12-05T12:35:17.079Z,7.45
2022-12-05T12:38:24.443Z,7.93
2022-12-05T12:41:46.261Z,8.45
2022-12-05T12:44:52.039Z,7.97
2022-12-05T12:47:40.285Z,8.43
2022-12-05T12:50:31.472Z,7.97
2022-12-05T12:53:28.831Z,8.10
2022-12-05T12:56:39.611Z,8.13
2022-12-05T12:59:41.448Z,8.05
2022-12-05T13:02:48.088Z,7.68
2022-12-05T13:05:46.859Z,8.07
2022-12-05T13:08:49.834Z,8.25
2022-12-05T13:11:40.195Z,7.68
2022-12-05T13:14:27.480Z,7.70
2022-12-05T13:17:17.940Z,7.50
2022-12-05T13:20:03.886Z,8.00
2022-12-05T13:22:52.336Z,8.23
2022-12-05T13:25:39.213Z,7.70
2022-12-05T13:28:42.238Z,7.40
2022-12-05T13:31:45.500Z,7.80
2022-12-05T13:34:46.026Z,7.68
2022-12-05T13:37:50.620Z,7.60
2022-12-05T13:40:59.893Z,7.93
2022-12-05T13:44:04.901Z,8.32
2022-12-05T13:46:52.571Z,7.90
2022-12-05T13:49:52.471Z,7.68
2022-12-05T13:52:58.067Z,7.82
2022-12-05T13:56:00.912Z,7.35
2022-12-05T13:58:52.097Z,8.27
2022-12-05T14:01:55.405Z,8.02
2022-12-05T14:04:53.705Z,7.93
2022-12-05T14:07:44.784Z,7.85
2022-12-05T14:10:32.746Z,8.07
2022-12-05T14:13:18.181Z,7.88
2022-12-05T14:16:22.637Z,8.52
2022-12-05T14:19:46.792Z,8.07
2022-12-05T14:22:41.075Z,7.65
2022-12-05T14:25:51.684Z,8.15
2022-12-05T14:29:27.992Z,7.75
2022-12-05T14:32:32.912Z,8.15
2022-12-05T14:35:30.067Z,8.55
2022-12-05T14:38:28.651Z,8.15
2022-12-05T14:41:35.149Z,8.32
2022-12-05T14:44:20.604Z,8.60
2022-12-05T14:47:07.235Z,8.18
2022-12-05T14:50:04.633Z,8.35
2022-12-05T14:53:17.692Z,8.43
2022-12-05T14:56:17.366Z,7.93
2022-12-05T14:59:17.627Z,7.95
2022-12-05T15:02:04.052Z,8.13
2022-12-05T15:04:56.677Z,7.00
2022-12-05T15:07:44.039Z,8.10
2022-12-05T15:10:33.410Z,8.13
2022-12-05T15:13:21.619Z,7.53
2022-12-05T15:16:15.588Z,7.43
2022-12-05T15:19:07.104Z,8.13
2022-12-05T15:21:57.323Z,7.47
2022-12-05T15:24:42.601Z,6.72
2022-12-05T15:27:28.187Z,7.38
2022-12-05T15:30:17.868Z,7.30
2022-12-05T15:33:03.626Z,6.88
2022-12-05T15:35:51.826Z,6.72
2022-12-05T15:38:37.757Z,6.70
2022-12-05T15:41:23.216Z,6.90
2022-12-05T15:44:14.028Z,6.38
2022-12-05T15:46:59.804Z,6.78
2022-12-05T15:49:46.616Z,6.32
2022-12-05T15:52:41.854Z,5.97
2022-12-05T15:55:33.624Z,6.05
2022-12-05T15:58:35.624Z,6.25
2022-12-05T16:01:23.801Z,5.63
2022-12-05T16:04:37.610Z,6.10
2022-12-05T16:07:27.015Z,6.40
2022-12-05T16:10:15.234Z,5.95
2022-12-05T16:13:12.450Z,5.78
2022-12-05T16:15:58.576Z,5.50
2022-12-05T16:18:50.931Z,5.70
2022-12-05T16:21:39.439Z,5.40
2022-12-05T16:24:30.289Z,5.57
2022-12-05T16:27:24.315Z,5.10
2022-12-05T16:30:20.242Z,5.97
2022-12-05T16:33:12.397Z,5.63
2022-12-05T16:36:11.878Z,5.07
2022-12-05T16:39:05.900Z,5.03
2022-12-05T16:41:51.598Z,5.07
2022-12-05T16:44:46.249Z,4.68
2022-12-05T16:47:43.823Z,5.25
2022-12-05T16:50:34.875Z,5.43
2022-12-05T16:53:27.037Z,4.38
2022-12-05T16:56:15.919Z,5.55
2022-12-05T16:59:05.992Z,5.10
2022-12-05T17:01:51.434Z,5.78
2022-12-05T17:04:38.288Z,5.97
2022-12-05T17:07:23.783Z,5.55
2022-12-05T17:10:09.252Z,5.25
2022-12-05T17:12:54.587Z,5.50
2022-12-05T17:15:40.152Z,5.72
2022-12-05T17:18:31.167Z,5.40
2022-12-05T17:21:20.965Z,5.65
2022-12-05T17:24:06.571Z,6.15
2022-12-05T17:26:52.265Z,5.90
2022-12-05T17:29:37.810Z,5.45
2022-12-05T17:32:23.018Z,5.20
2022-12-05T17:35:20.011Z,5.40
2022-12-05T17:38:06.032Z,5.53
2022-12-05T17:40:51.633Z,5.45
2022-12-05T17:43:36.790Z,5.60
2022-12-05T17:46:23.472Z,5.80
2022-12-05T17:49:13.581Z,5.78
2022-12-05T17:52:21.173Z,5.18
2022-12-05T17:55:06.807Z,5.80
2022-12-05T17:57:53.066Z,5.05
2022-12-05T18:00:38.419Z,5.65
2022-12-05T18:03:25.308Z,4.88
2022-12-05T18:06:10.582Z,5.38
2022-12-05T18:08:56.120Z,6.30
2022-12-05T18:11:41.339Z,6.10
2022-12-05T18:14:28.233Z,5.68
2022-12-05T18:17:13.816Z,5.43
2022-12-05T18:19:59.017Z,5.15
2022-12-05T18:22:44.598Z,5.38
2022-12-05T18:25:31.884Z,5.50
2022-12-05T18:28:19.588Z,5.40
2022-12-05T18:31:12.089Z,5.78
2022-12-05T18:33:57.840Z,5.57
2022-12-05T18:36:43.453Z,5.68
2022-12-05T18:39:29.299Z,6.13
2022-12-05T18:42:15.434Z,5.80
2022-12-05T18:45:02.002Z,5.65
2022-12-05T18:47:47.531Z,5.72
2022-12-05T18:50:33.130Z,6.15
2022-12-05T18:53:18.999Z,5.85
2022-12-05T18:56:25.999Z,6.32
2022-12-05T18:59:15.594Z,6.60
2022-12-05T19:02:01.102Z,6.32
2022-12-05T19:04:46.400Z,6.93
2022-12-05T19:07:31.999Z,7.22
2022-12-05T19:10:17.473Z,7.07
2022-12-05T19:13:02.929Z,7.40
2022-12-05T19:15:48.500Z,7.03
2022-12-05T19:18:34.106Z,6.90
2022-12-05T19:21:19.514Z,6.90
2022-12-05T19:24:06.719Z,6.88
2022-12-05T19:26:52.062Z,7.32
2022-12-05T19:29:37.620Z,7.03
2022-12-05T19:32:23.143Z,6.82
2022-12-05T19:35:08.940Z,6.65
2022-12-05T19:37:55.065Z,7.60
2022-12-05T19:40:40.164Z,7.30
2022-12-05T19:43:27.248Z,7.38
2022-12-05T19:46:15.261Z,6.82
2022-12-05T19:49:06.793Z,7.07
2022-12-05T19:51:52.860Z,7.68
2022-12-05T19:54:38.200Z,7.40
2022-12-05T19:57:23.784Z,6.80
2022-12-05T20:00:09.958Z,7.25
2022-12-05T20:02:57.845Z,6.13
2022-12-05T20:05:43.010Z,7.07
2022-12-05T20:08:28.709Z,6.95
2022-12-05T20:11:21.306Z,6.85
2022-12-05T20:14:06.978Z,6.40
2022-12-05T20:16:52.973Z,6.93
2022-12-05T20:19:38.391Z,6.28
2022-12-05T20:22:25.921Z,6.97
2022-12-05T20:25:11.068Z,6.80
2022-12-05T20:27:56.482Z,6.50
2022-12-05T20:30:41.939Z,6.53
2022-12-05T20:33:27.167Z,6.03
2022-12-05T20:36:15.644Z,6.57
2022-12-05T20:39:10.442Z,5.47
2022-12-05T20:41:56.211Z,6.13
2022-12-05T20:44:41.753Z,6.32
2022-12-05T20:47:27.260Z,6.13
2022-12-05T20:50:13.859Z,6.15
2022-12-05T20:52:59.299Z,6.55
2022-12-05T20:55:44.646Z,6.15
2022-12-05T20:58:30.219Z,6.40
2022-12-05T21:01:16.839Z,5.38
2022-12-05T21:04:03.528Z,5.25
2022-12-05T21:06:49.626Z,5.53
2022-12-05T21:09:35.816Z,5.30
2022-12-05T21:12:21.415Z,4.90
2022-12-05T21:15:07.220Z,4.53
2022-12-05T21:17:52.687Z,4.88
2022-12-05T21:20:42.091Z,5.07
2022-12-05T21:23:28.186Z,4.78
2022-12-05T21:26:16.182Z,5.28
2022-12-05T21:29:03.904Z,4.72
2022-12-05T21:31:50.635Z,5.10
2022-12-05T21:34:36.093Z,5.45
2022-12-05T21:37:21.473Z,5.05
2022-12-05T21:40:08.268Z,4.32
2022-12-05T21:42:53.519Z,4.38
2022-12-05T21:45:43.318Z,4.70
2022-12-05T21:48:30.877Z,4.53
2022-12-05T21:51:16.098Z,4.95
2022-12-05T21:54:01.440Z,5.20
2022-12-05T21:56:46.855Z,5.38
2022-12-05T21:59:32.704Z,4.75
2022-12-05T22:02:18.187Z,5.20
2022-12-05T22:05:04.142Z,4.50
2022-12-05T22:07:49.599Z,5.18
2022-12-05T22:10:35.215Z,4.95
2022-12-05T22:13:20.455Z,5.00
2022-12-05T22:16:07.005Z,4.70
2022-12-05T22:18:52.521Z,4.75
2022-12-05T22:21:38.034Z,4.75
2022-12-05T22:24:23.473Z,5.50
2022-12-05T22:27:09.031Z,5.80
2022-12-05T22:29:54.386Z,5.20
2022-12-05T22:32:39.967Z,4.80
2022-12-05T22:35:25.202Z,4.45
2022-12-05T22:38:10.858Z,4.72
2022-12-05T22:40:58.282Z,4.80
2022-12-05T22:43:45.522Z,4.80
2022-12-05T22:46:31.019Z,4.40
2022-12-05T22:49:18.177Z,4.55
2022-12-05T22:52:06.375Z,4.32
2022-12-05T22:54:51.563Z,4.60
2022-12-05T22:57:37.046Z,4.10
2022-12-05T23:00:22.566Z,4.75
2022-12-05T23:03:08.623Z,4.35
2022-12-05T23:05:53.996Z,3.80
2022-12-05T23:08:41.320Z,4.10
2022-12-05T23:11:27.680Z,4.05
2022-12-05T23:14:13.195Z,3.85
2022-12-05T23:16:58.658Z,3.80
2022-12-05T23:19:43.884Z,3.72
2022-12-05T23:22:29.419Z,3.88
2022-12-05T23:25:14.936Z,3.78
2022-12-05T23:28:00.444Z,3.50
2022-12-05T23:30:46.321Z,4.38
2022-12-05T23:33:32.041Z,3.60
2022-12-05T23:36:17.760Z,3.72
2022-12-05T23:39:04.015Z,3.72
2022-12-05T23:41:49.320Z,3.78
2022-12-05T23:44:34.690Z,3.88
2022-12-05T23:47:20.041Z,3.92
2022-12-05T23:50:06.131Z,3.65
2022-12-05T23:52:51.558Z,3.65
2022-12-05T23:55:37.081Z,3.47
2022-12-05T23:58:22.543Z,3.40
